sensor_id;sensor_type;location;lat;lon;timestamp;pressure;altitude;pressure_sealevel;temperature;humidity
84770;BME280;75001;51.082;17.008;2024-01-25T00:09:50;101573.31;;;9.32;59.10
84770;BME280;75001;51.082;17.008;2024-01-25T00:20:00;101572.42;;;9.43;58.63
84770;BME280;75001;51.082;17.008;2024-01-25T00:30:11;101580.91;;;9.38;58.61
84770;BME280;75001;51.082;17.008;2024-01-25T00:40:21;101585.35;;;9.16;57.99
84770;BME280;75001;51.082;17.008;2024-01-25T00:50:38;101595.94;;;9.42;57.43
84770;BME280;75001;51.082;17.008;2024-01-25T01:00:44;101601.70;;;9.15;56.37
84770;BME280;75001;51.082;17.008;2024-01-25T01:10:55;101612.55;;;9.37;55.71
84770;BME280;75001;51.082;17.008;2024-01-25T01:21:05;101614.66;;;9.56;55.21
84770;BME280;75001;51.082;17.008;2024-01-25T01:31:15;101638.52;;;9.62;54.68
84770;BME280;75001;51.082;17.008;2024-01-25T01:41:24;101649.36;;;9.85;54.28
84770;BME280;75001;51.082;17.008;2024-01-25T01:51:35;101659.09;;;9.65;54.48
84770;BME280;75001;51.082;17.008;2024-01-25T02:01:44;101665.74;;;9.61;53.85
84770;BME280;75001;51.082;17.008;2024-01-25T02:12:04;101651.80;;;9.88;53.74
84770;BME280;75001;51.082;17.008;2024-01-25T02:22:06;101662.01;;;10.07;53.35
84770;BME280;75001;51.082;17.008;2024-01-25T02:32:15;101659.91;;;10.10;53.13
84770;BME280;75001;51.082;17.008;2024-01-25T02:42:25;101645.88;;;9.94;52.93
84770;BME280;75001;51.082;17.008;2024-01-25T02:52:35;101655.02;;;9.93;53.03
84770;BME280;75001;51.082;17.008;2024-01-25T03:02:45;101655.25;;;10.01;53.22
84770;BME280;75001;51.082;17.008;2024-01-25T03:12:55;101666.71;;;9.94;53.04
84770;BME280;75001;51.082;17.008;2024-01-25T03:23:05;101656.58;;;10.07;52.95
84770;BME280;75001;51.082;17.008;2024-01-25T03:33:15;101676.54;;;10.17;52.45
84770;BME280;75001;51.082;17.008;2024-01-25T03:43:25;101678.27;;;10.07;52.67
84770;BME280;75001;51.082;17.008;2024-01-25T03:53:35;101675.42;;;10.08;52.34
84770;BME280;75001;51.082;17.008;2024-01-25T04:03:45;101656.49;;;9.86;52.72
84770;BME280;75001;51.082;17.008;2024-01-25T04:13:55;101665.34;;;9.88;53.15
84770;BME280;75001;51.082;17.008;2024-01-25T04:24:05;101661.05;;;9.97;53.39
84770;BME280;75001;51.082;17.008;2024-01-25T04:34:15;101648.20;;;10.10;53.59
84770;BME280;75001;51.082;17.008;2024-01-25T04:44:25;101662.86;;;10.07;53.68
84770;BME280;75001;51.082;17.008;2024-01-25T04:54:35;101650.79;;;10.00;54.34
84770;BME280;75001;51.082;17.008;2024-01-25T05:04:45;101644.55;;;9.88;54.26
84770;BME280;75001;51.082;17.008;2024-01-25T05:14:55;101644.69;;;9.64;54.98
84770;BME280;75001;51.082;17.008;2024-01-25T05:25:05;101662.03;;;9.51;55.20
84770;BME280;75001;51.082;17.008;2024-01-25T05:35:16;101647.01;;;9.47;55.68
84770;BME280;75001;51.082;17.008;2024-01-25T05:45:26;101652.81;;;9.53;56.14
84770;BME280;75001;51.082;17.008;2024-01-25T05:55:36;101667.34;;;8.95;57.86
84770;BME280;75001;51.082;17.008;2024-01-25T06:05:46;101683.65;;;9.17;57.91
84770;BME280;75001;51.082;17.008;2024-01-25T06:15:56;101692.89;;;9.26;58.32
84770;BME280;75001;51.082;17.008;2024-01-25T06:26:06;101696.59;;;9.25;58.09
84770;BME280;75001;51.082;17.008;2024-01-25T06:36:16;101717.02;;;9.29;57.47
84770;BME280;75001;51.082;17.008;2024-01-25T06:46:26;101733.05;;;9.43;56.91
84770;BME280;75001;51.082;17.008;2024-01-25T06:56:36;101714.61;;;9.48;56.36
84770;BME280;75001;51.082;17.008;2024-01-25T07:06:46;101715.11;;;9.53;55.49
84770;BME280;75001;51.082;17.008;2024-01-25T07:16:56;101719.76;;;9.51;54.69
84770;BME280;75001;51.082;17.008;2024-01-25T07:27:07;101741.19;;;9.54;54.43
84770;BME280;75001;51.082;17.008;2024-01-25T07:37:17;101743.23;;;9.28;54.51
84770;BME280;75001;51.082;17.008;2024-01-25T07:47:27;101772.34;;;9.60;53.81
84770;BME280;75001;51.082;17.008;2024-01-25T07:57:40;101805.23;;;9.66;53.25
84770;BME280;75001;51.082;17.008;2024-01-25T08:07:50;101810.34;;;9.47;53.34
84770;BME280;75001;51.082;17.008;2024-01-25T08:18:00;101825.09;;;9.78;52.93
84770;BME280;75001;51.082;17.008;2024-01-25T08:28:10;101841.50;;;9.99;52.25
84770;BME280;75001;51.082;17.008;2024-01-25T08:38:20;101845.94;;;10.00;51.46
84770;BME280;75001;51.082;17.008;2024-01-25T08:48:30;101827.22;;;9.97;51.62
84770;BME280;75001;51.082;17.008;2024-01-25T08:58:40;101856.05;;;10.21;51.24
84770;BME280;75001;51.082;17.008;2024-01-25T09:08:51;101855.48;;;10.28;50.57
84770;BME280;75001;51.082;17.008;2024-01-25T09:19:00;101879.03;;;10.28;50.38
84770;BME280;75001;51.082;17.008;2024-01-25T09:29:10;101902.11;;;10.33;50.55
84770;BME280;75001;51.082;17.008;2024-01-25T09:39:20;101903.48;;;10.50;50.27
84770;BME280;75001;51.082;17.008;2024-01-25T09:49:30;101920.84;;;10.48;50.02
84770;BME280;75001;51.082;17.008;2024-01-25T09:59:41;101922.33;;;10.52;50.15
84770;BME280;75001;51.082;17.008;2024-01-25T10:09:50;101916.02;;;10.40;50.24
84770;BME280;75001;51.082;17.008;2024-01-25T10:20:00;101919.98;;;10.47;50.38
84770;BME280;75001;51.082;17.008;2024-01-25T10:30:11;101941.95;;;10.67;49.93
84770;BME280;75001;51.082;17.008;2024-01-25T10:40:21;101927.16;;;10.82;49.61
84770;BME280;75001;51.082;17.008;2024-01-25T10:50:31;101935.74;;;11.09;49.44
84770;BME280;75001;51.082;17.008;2024-01-25T11:00:40;101928.59;;;10.97;48.90
84770;BME280;75001;51.082;17.008;2024-01-25T11:10:51;101938.60;;;10.97;49.32
84770;BME280;75001;51.082;17.008;2024-01-25T11:21:00;101926.40;;;10.91;49.63
84770;BME280;75001;51.082;17.008;2024-01-25T11:31:11;101950.46;;;10.62;50.12
84770;BME280;75001;51.082;17.008;2024-01-25T11:41:21;101960.92;;;10.55;50.71
84770;BME280;75001;51.082;17.008;2024-01-25T11:51:30;101983.13;;;10.49;50.43
84770;BME280;75001;51.082;17.008;2024-01-25T12:01:41;101974.75;;;10.63;50.52
84770;BME280;75001;51.082;17.008;2024-01-25T12:11:50;101997.91;;;10.56;50.31
84770;BME280;75001;51.082;17.008;2024-01-25T12:22:01;101978.21;;;10.66;49.18
84770;BME280;75001;51.082;17.008;2024-01-25T12:32:11;101995.71;;;10.73;49.24
84770;BME280;75001;51.082;17.008;2024-01-25T12:42:21;102008.39;;;10.61;49.46
84770;BME280;75001;51.082;17.008;2024-01-25T12:52:31;102008.05;;;10.54;49.33
84770;BME280;75001;51.082;17.008;2024-01-25T13:02:41;102024.34;;;10.88;48.13
84770;BME280;75001;51.082;17.008;2024-01-25T13:12:51;102026.45;;;10.84;48.05
84770;BME280;75001;51.082;17.008;2024-01-25T13:23:01;102033.00;;;10.82;46.60
84770;BME280;75001;51.082;17.008;2024-01-25T13:33:11;102035.92;;;10.68;47.73
84770;BME280;75001;51.082;17.008;2024-01-25T13:43:21;102052.20;;;10.68;48.24
84770;BME280;75001;51.082;17.008;2024-01-25T13:53:31;102066.77;;;10.67;48.39
84770;BME280;75001;51.082;17.008;2024-01-25T14:03:41;102075.62;;;10.69;48.77
84770;BME280;75001;51.082;17.008;2024-01-25T14:13:51;102083.51;;;10.60;49.49
84770;BME280;75001;51.082;17.008;2024-01-25T14:24:01;102094.13;;;10.63;50.41
84770;BME280;75001;51.082;17.008;2024-01-25T14:34:11;102087.57;;;10.55;50.32
84770;BME280;75001;51.082;17.008;2024-01-25T14:44:21;102103.69;;;10.21;51.00
84770;BME280;75001;51.082;17.008;2024-01-25T14:54:31;102099.00;;;9.99;50.89
84770;BME280;75001;51.082;17.008;2024-01-25T15:04:41;102130.66;;;9.99;50.95
84770;BME280;75001;51.082;17.008;2024-01-25T15:14:51;102137.17;;;9.96;50.05
84770;BME280;75001;51.082;17.008;2024-01-25T15:31:20;102152.86;;;9.67;50.65
84770;BME280;75001;51.082;17.008;2024-01-25T15:41:30;102198.58;;;9.84;50.25
84770;BME280;75001;51.082;17.008;2024-01-25T15:51:40;102187.15;;;9.92;50.06
84770;BME280;75001;51.082;17.008;2024-01-25T16:01:50;102209.16;;;9.87;50.16
84770;BME280;75001;51.082;17.008;2024-01-25T16:12:00;102213.52;;;9.90;50.41
84770;BME280;75001;51.082;17.008;2024-01-25T16:22:10;102235.62;;;9.84;51.19
84770;BME280;75001;51.082;17.008;2024-01-25T16:32:20;102259.47;;;9.91;51.00
84770;BME280;75001;51.082;17.008;2024-01-25T16:42:31;102283.31;;;9.99;51.19
84770;BME280;75001;51.082;17.008;2024-01-25T16:52:40;102281.16;;;9.91;51.43
84770;BME280;75001;51.082;17.008;2024-01-25T17:02:50;102298.84;;;9.97;51.59
84770;BME280;75001;51.082;17.008;2024-01-25T17:13:06;102308.48;;;10.01;51.53
84770;BME280;75001;51.082;17.008;2024-01-25T17:23:15;102315.41;;;10.05;51.72
84770;BME280;75001;51.082;17.008;2024-01-25T17:33:23;102330.18;;;9.88;52.06
84770;BME280;75001;51.082;17.008;2024-01-25T17:43:31;102339.38;;;9.86;52.30
84770;BME280;75001;51.082;17.008;2024-01-25T17:53:40;102340.12;;;9.88;52.68
84770;BME280;75001;51.082;17.008;2024-01-25T18:03:50;102350.88;;;9.89;52.79
84770;BME280;75001;51.082;17.008;2024-01-25T18:14:01;102339.47;;;9.72;53.30
84770;BME280;75001;51.082;17.008;2024-01-25T18:24:11;102347.27;;;9.63;54.00
84770;BME280;75001;51.082;17.008;2024-01-25T18:34:21;102364.04;;;9.56;54.20
84770;BME280;75001;51.082;17.008;2024-01-25T18:44:31;102372.14;;;9.43;54.48
84770;BME280;75001;51.082;17.008;2024-01-25T18:54:41;102367.70;;;9.42;54.71
84770;BME280;75001;51.082;17.008;2024-01-25T19:04:51;102365.31;;;9.37;55.04
84770;BME280;75001;51.082;17.008;2024-01-25T19:15:01;102377.21;;;9.35;55.16
84770;BME280;75001;51.082;17.008;2024-01-25T19:25:14;102397.09;;;9.48;54.99
84770;BME280;75001;51.082;17.008;2024-01-25T19:35:24;102410.28;;;9.13;55.42
84770;BME280;75001;51.082;17.008;2024-01-25T19:45:35;102423.62;;;9.16;55.97
84770;BME280;75001;51.082;17.008;2024-01-25T19:55:44;102430.77;;;9.17;56.43
84770;BME280;75001;51.082;17.008;2024-01-25T20:05:55;102427.08;;;9.18;56.71
84770;BME280;75001;51.082;17.008;2024-01-25T20:16:05;102431.13;;;9.25;56.86
84770;BME280;75001;51.082;17.008;2024-01-25T20:26:15;102425.82;;;9.24;56.99
84770;BME280;75001;51.082;17.008;2024-01-25T20:36:24;102443.80;;;9.25;57.08
84770;BME280;75001;51.082;17.008;2024-01-25T20:46:34;102449.09;;;9.26;57.20
84770;BME280;75001;51.082;17.008;2024-01-25T20:56:44;102446.55;;;9.37;57.09
84770;BME280;75001;51.082;17.008;2024-01-25T21:06:55;102442.32;;;9.33;57.20
84770;BME280;75001;51.082;17.008;2024-01-25T21:17:04;102441.53;;;9.31;57.11
84770;BME280;75001;51.082;17.008;2024-01-25T21:27:14;102462.44;;;9.29;57.12
84770;BME280;75001;51.082;17.008;2024-01-25T21:37:24;102463.87;;;9.35;57.04
84770;BME280;75001;51.082;17.008;2024-01-25T21:47:34;102466.37;;;9.38;57.00
84770;BME280;75001;51.082;17.008;2024-01-25T21:57:48;102473.63;;;9.37;56.88
84770;BME280;75001;51.082;17.008;2024-01-25T22:07:54;102487.84;;;9.41;57.07
84770;BME280;75001;51.082;17.008;2024-01-25T22:18:04;102502.41;;;9.53;56.67
84770;BME280;75001;51.082;17.008;2024-01-25T22:28:15;102510.18;;;9.45;56.28
84770;BME280;75001;51.082;17.008;2024-01-25T22:38:25;102510.14;;;9.03;56.71
84770;BME280;75001;51.082;17.008;2024-01-25T22:48:35;102522.68;;;9.33;56.24
84770;BME280;75001;51.082;17.008;2024-01-25T22:58:45;102526.73;;;9.40;56.06
84770;BME280;75001;51.082;17.008;2024-01-25T23:08:55;102526.69;;;9.54;55.79
84770;BME280;75001;51.082;17.008;2024-01-25T23:19:05;102526.43;;;9.45;55.39
84770;BME280;75001;51.082;17.008;2024-01-25T23:29:15;102557.33;;;9.28;55.65
84770;BME280;75001;51.082;17.008;2024-01-25T23:39:25;102558.75;;;9.33;55.62
84770;BME280;75001;51.082;17.008;2024-01-25T23:49:38;102567.86;;;9.32;55.41
84770;BME280;75001;51.082;17.008;2024-01-25T23:59:48;102577.23;;;8.98;55.86
